Millville, Minnesota
Current Conditions -  °F | °C
As of 2:54 PM on Thursday 20 Nov 2014 (Local Time) from K9MN Reporting Station
Clear Clear  
Wind Chill: -16°   Ceiling: Unl
Heat Index: -8°   Visibility: 10mi
Dew Point: -17°   Wind: 16mph
Humidity: 50%   Direction: 290°WNW
Pressure: 30.13"   Gusts: 26mph
Location:  44.24°N, 92.3°W
Report Text: K9MN 202054Z AUTO 29014G23KT 10SM CLR M08/M17 A3013 RMK AO1 T10801167
Loading
Personal Weather Stations






























Interactive Weather Map New forecast layout! Learn more

10-Day Weather Forecast

Advertisements
Track Severe Weather on mobile